createdAt,value
2023-04-23T00:02:23.019Z,38.61
2023-04-23T00:04:54.278Z,38.63
2023-04-23T00:07:22.883Z,38.47
2023-04-23T00:09:52.113Z,38.49
2023-04-23T00:12:21.139Z,38.49
2023-04-23T00:14:49.963Z,38.49
2023-04-23T00:17:18.093Z,38.50
2023-04-23T00:19:47.698Z,38.49
2023-04-23T00:22:17.121Z,38.77
2023-04-23T00:24:45.235Z,38.45
2023-04-23T00:27:13.744Z,38.48
2023-04-23T00:29:43.430Z,38.55
2023-04-23T00:32:11.536Z,38.52
2023-04-23T00:34:39.974Z,38.46
2023-04-23T00:37:09.614Z,38.55
2023-04-23T00:39:38.831Z,38.47
2023-04-23T00:42:12.534Z,38.43
2023-04-23T00:44:42.198Z,38.35
2023-04-23T00:47:12.359Z,38.46
2023-04-23T00:49:40.821Z,38.45
2023-04-23T00:52:10.344Z,38.49
2023-04-23T00:54:38.457Z,38.51
2023-04-23T00:57:08.125Z,38.54
2023-04-23T00:59:37.332Z,38.54
2023-04-23T01:02:05.935Z,38.52
2023-04-23T01:04:35.132Z,38.54
2023-04-23T01:07:03.918Z,38.55
2023-04-23T01:09:36.190Z,38.52
2023-04-23T01:12:06.697Z,38.47
2023-04-23T01:14:34.919Z,38.43
2023-04-23T01:17:03.701Z,38.54
2023-04-23T01:19:32.104Z,38.57
2023-04-23T01:22:02.208Z,38.54
2023-04-23T01:24:32.802Z,38.63
2023-04-23T01:27:01.792Z,38.55
2023-04-23T01:29:31.224Z,38.64
2023-04-23T01:32:00.548Z,38.59
2023-04-23T01:34:28.663Z,38.57
2023-04-23T01:36:57.380Z,38.64
2023-04-23T01:39:25.549Z,38.63
2023-04-23T01:41:55.590Z,38.72
2023-04-23T01:44:23.720Z,38.67
2023-04-23T01:46:52.637Z,38.63
2023-04-23T01:49:20.820Z,38.75
2023-04-23T01:51:48.876Z,38.72
2023-04-23T01:54:16.964Z,38.69
2023-04-23T01:56:45.040Z,38.63
2023-04-23T01:59:14.751Z,38.69
2023-04-23T02:01:44.955Z,38.80
2023-04-23T02:04:14.431Z,38.75
2023-04-23T02:06:43.777Z,38.74
2023-04-23T02:09:12.121Z,38.72
2023-04-23T02:11:40.235Z,38.72
2023-04-23T02:14:09.116Z,38.82
2023-04-23T02:16:38.731Z,38.85
2023-04-23T02:19:07.049Z,38.84
2023-04-23T02:21:35.337Z,38.83
2023-04-23T02:24:05.376Z,38.79
2023-04-23T02:26:33.438Z,38.88
2023-04-23T02:29:01.503Z,38.82
2023-04-23T02:31:29.637Z,38.73
2023-04-23T02:33:59.256Z,38.81
2023-04-23T02:36:28.751Z,38.80
2023-04-23T02:38:56.817Z,38.82
2023-04-23T02:41:24.838Z,38.78
2023-04-23T02:43:52.833Z,38.80
2023-04-23T02:46:20.913Z,38.85
2023-04-23T02:48:48.958Z,38.93
2023-04-23T02:51:18.554Z,38.92
2023-04-23T02:53:46.732Z,38.88
2023-04-23T02:56:14.822Z,38.90
2023-04-23T02:58:42.955Z,38.86
2023-04-23T03:01:11.044Z,38.93
2023-04-23T03:03:39.386Z,38.84
2023-04-23T03:06:08.605Z,38.86
2023-04-23T03:08:38.123Z,38.96
2023-04-23T03:11:06.199Z,38.61
2023-04-23T03:13:34.523Z,38.94
2023-04-23T03:16:02.635Z,39.04
2023-04-23T03:18:30.847Z,38.94
2023-04-23T03:20:58.933Z,38.89
2023-04-23T03:23:27.017Z,39.01
2023-04-23T03:25:56.546Z,38.89
2023-04-23T03:28:24.646Z,38.98
2023-04-23T03:30:52.732Z,38.90
2023-04-23T03:33:20.892Z,38.94
2023-04-23T03:35:48.990Z,38.97
2023-04-23T03:38:17.087Z,38.96
2023-04-23T03:40:45.268Z,39.01
2023-04-23T03:43:14.864Z,39.01
2023-04-23T03:45:42.974Z,38.97
2023-04-23T03:48:11.032Z,39.02
2023-04-23T03:50:40.878Z,39.07
2023-04-23T03:53:11.440Z,39.05
2023-04-23T03:55:39.535Z,39.12
2023-04-23T03:58:09.318Z,39.04
2023-04-23T04:00:38.794Z,39.09
2023-04-23T04:03:07.195Z,39.12
2023-04-23T04:05:35.377Z,38.92
2023-04-23T04:08:05.140Z,39.16
2023-04-23T04:10:33.246Z,39.32
2023-04-23T04:13:01.663Z,39.14
2023-04-23T04:15:29.931Z,39.06
2023-04-23T04:17:59.870Z,39.10
2023-04-23T04:20:28.975Z,39.21
2023-04-23T04:22:57.367Z,39.18
2023-04-23T04:25:25.525Z,39.27
2023-04-23T04:27:53.574Z,39.27
2023-04-23T04:30:21.758Z,39.15
2023-04-23T04:32:50.971Z,39.18
2023-04-23T04:35:20.411Z,39.24
2023-04-23T04:37:49.863Z,39.19
2023-04-23T04:40:18.583Z,39.18
2023-04-23T04:42:47.606Z,39.35
2023-04-23T04:45:15.643Z,39.27
2023-04-23T04:47:43.725Z,39.21
2023-04-23T04:50:12.707Z,39.35
2023-04-23T04:52:42.148Z,39.35
2023-04-23T04:55:11.106Z,39.28
2023-04-23T04:57:39.142Z,39.25
2023-04-23T05:00:22.765Z,39.67
2023-04-23T05:02:52.408Z,39.42
2023-04-23T05:05:21.493Z,39.48
2023-04-23T05:07:51.185Z,39.60
2023-04-23T05:10:19.474Z,39.40
2023-04-23T05:12:47.799Z,39.40
2023-04-23T05:15:16.626Z,39.43
2023-04-23T05:17:45.193Z,39.43
2023-04-23T05:20:13.411Z,39.47
2023-04-23T05:22:42.331Z,39.39
2023-04-23T05:25:13.734Z,39.49
2023-04-23T05:27:42.717Z,39.49
2023-04-23T05:30:12.099Z,39.50
2023-04-23T05:32:40.174Z,39.52
2023-04-23T05:35:10.474Z,39.72
2023-04-23T05:37:38.529Z,39.63
2023-04-23T05:40:07.951Z,39.62
2023-04-23T05:42:38.394Z,39.78
2023-04-23T05:45:09.019Z,39.65
2023-04-23T05:47:37.687Z,39.80
2023-04-23T05:50:07.075Z,39.79
2023-04-23T05:52:37.441Z,39.83
2023-04-23T05:55:06.219Z,39.86
2023-04-23T05:57:34.278Z,39.85
2023-04-23T06:00:05.978Z,39.83
2023-04-23T06:02:34.989Z,39.83
2023-04-23T06:05:03.358Z,39.87
2023-04-23T06:07:31.550Z,39.82
2023-04-23T06:09:59.694Z,40.00
2023-04-23T06:12:27.855Z,40.00
2023-04-23T06:14:55.993Z,40.04
2023-04-23T06:17:25.726Z,40.11
2023-04-23T06:19:53.763Z,39.98
2023-04-23T06:22:21.790Z,39.99
2023-04-23T06:24:51.706Z,40.17
2023-04-23T06:27:19.783Z,40.15
2023-04-23T06:29:47.849Z,40.07
2023-04-23T06:32:17.297Z,40.17
2023-04-23T06:35:00.283Z,40.18
2023-04-23T06:37:30.932Z,40.20
2023-04-23T06:40:00.260Z,40.25
2023-04-23T06:42:28.359Z,40.26
2023-04-23T06:44:56.633Z,40.27
2023-04-23T06:47:24.703Z,40.46
2023-04-23T06:49:54.107Z,40.44
2023-04-23T06:52:22.249Z,40.27
2023-04-23T06:54:50.337Z,40.29
2023-04-23T06:57:18.533Z,40.32
2023-04-23T06:59:46.596Z,40.40
2023-04-23T07:02:14.792Z,40.35
2023-04-23T07:04:43.114Z,40.34
2023-04-23T07:07:12.928Z,40.25
2023-04-23T07:09:40.990Z,40.43
2023-04-23T07:12:09.247Z,40.49
2023-04-23T07:14:37.273Z,40.54
2023-04-23T07:17:05.460Z,40.57
2023-04-23T07:19:33.613Z,40.63
2023-04-23T07:22:01.650Z,40.49
2023-04-23T07:24:31.096Z,40.56
2023-04-23T07:26:59.304Z,40.66
2023-04-23T07:29:27.397Z,40.59
2023-04-23T07:31:55.486Z,40.50
2023-04-23T07:34:23.623Z,40.77
2023-04-23T07:36:52.229Z,40.77
2023-04-23T07:39:20.247Z,40.63
2023-04-23T07:41:49.863Z,40.88
2023-04-23T07:44:17.965Z,40.88
2023-04-23T07:46:46.040Z,40.76
2023-04-23T07:49:14.242Z,40.85
2023-04-23T07:51:42.832Z,40.82
2023-04-23T07:54:11.706Z,40.72
2023-04-23T07:56:40.515Z,40.87
2023-04-23T07:59:11.486Z,41.09
2023-04-23T08:01:39.684Z,41.02
2023-04-23T08:04:08.242Z,40.99
2023-04-23T08:06:36.539Z,41.00
2023-04-23T08:09:06.697Z,41.06
2023-04-23T08:11:34.864Z,41.00
2023-04-23T08:14:02.943Z,41.08
2023-04-23T08:16:32.549Z,41.07
2023-04-23T08:19:05.562Z,41.09
2023-04-23T08:21:34.429Z,41.03
2023-04-23T08:24:03.553Z,41.05
2023-04-23T08:26:31.800Z,41.14
2023-04-23T08:29:00.763Z,41.13
2023-04-23T08:31:28.969Z,41.28
2023-04-23T08:33:58.566Z,41.31
2023-04-23T08:36:27.752Z,41.16
2023-04-23T08:38:55.820Z,41.30
2023-04-23T08:41:24.655Z,41.25
2023-04-23T08:43:57.902Z,41.32
2023-04-23T08:46:27.868Z,41.31
2023-04-23T08:49:00.432Z,41.27
2023-04-23T08:51:32.667Z,41.33
2023-04-23T08:54:04.805Z,41.33
2023-04-23T08:56:33.631Z,41.27
2023-04-23T08:59:04.057Z,41.37
2023-04-23T09:01:32.563Z,41.39
2023-04-23T09:04:02.277Z,41.59
2023-04-23T09:06:32.349Z,41.61
2023-04-23T09:09:01.019Z,41.79
2023-04-23T09:11:30.368Z,41.97
2023-04-23T09:14:00.086Z,42.20
2023-04-23T09:16:28.794Z,42.21
2023-04-23T09:18:56.854Z,42.45
2023-04-23T09:21:26.456Z,42.56
2023-04-23T09:23:54.551Z,42.57
2023-04-23T09:26:23.601Z,42.79
2023-04-23T09:28:52.550Z,42.90
2023-04-23T09:31:24.519Z,43.05
2023-04-23T09:33:53.991Z,42.99
2023-04-23T09:36:23.854Z,42.92
2023-04-23T09:38:58.372Z,43.22
2023-04-23T09:41:27.948Z,42.80
2023-04-23T09:43:56.754Z,42.86
2023-04-23T09:46:35.580Z,43.53
2023-04-23T09:49:07.821Z,42.89
2023-04-23T09:51:37.802Z,42.94
2023-04-23T09:54:12.948Z,43.25
2023-04-23T09:56:41.467Z,42.86
2023-04-23T09:59:46.277Z,43.82
2023-04-23T10:02:12.685Z,42.74
2023-04-23T10:04:42.234Z,42.89
2023-04-23T10:07:19.849Z,42.80
2023-04-23T10:09:50.006Z,42.82
2023-04-23T10:14:53.928Z,42.83
2023-04-23T10:17:24.460Z,42.82
2023-04-23T10:19:53.526Z,42.86
2023-04-23T10:22:24.255Z,42.78
2023-04-23T10:24:57.328Z,42.87
2023-04-23T10:27:40.624Z,42.84
2023-04-23T10:30:17.614Z,42.85
2023-04-23T10:32:48.920Z,42.79
2023-04-23T10:35:17.476Z,42.76
2023-04-23T10:37:47.072Z,42.83
2023-04-23T10:40:24.087Z,42.82
2023-04-23T10:42:52.669Z,42.97
2023-04-23T10:45:25.411Z,42.93
2023-04-23T10:47:55.988Z,42.92
2023-04-23T10:50:26.361Z,42.92
2023-04-23T10:52:57.217Z,42.90
2023-04-23T10:55:28.217Z,42.90
2023-04-23T10:58:04.198Z,43.22
2023-04-23T11:00:45.829Z,43.41
2023-04-23T11:03:33.554Z,43.62
2023-04-23T11:06:05.148Z,42.95
2023-04-23T11:08:36.107Z,42.84
2023-04-23T11:11:10.504Z,43.00
2023-04-23T11:13:52.677Z,43.68
2023-04-23T11:16:23.452Z,42.97
2023-04-23T11:19:05.240Z,43.52
2023-04-23T11:22:01.676Z,43.78
2023-04-23T11:24:31.904Z,42.93
2023-04-23T11:27:02.897Z,42.97
2023-04-23T11:29:31.120Z,42.96
2023-04-23T11:32:03.874Z,42.96
2023-04-23T11:34:33.479Z,42.95
2023-04-23T11:37:07.869Z,42.98
2023-04-23T11:39:35.932Z,42.96
2023-04-23T11:42:08.133Z,42.99
2023-04-23T11:44:42.492Z,42.99
2023-04-23T11:47:11.869Z,42.86
2023-04-23T11:49:42.674Z,42.99
2023-04-23T11:52:11.165Z,42.98
2023-04-23T11:54:41.910Z,42.87
2023-04-23T11:57:11.951Z,42.85
2023-04-23T11:59:40.263Z,42.92
2023-04-23T12:02:08.850Z,42.95
2023-04-23T12:04:39.606Z,43.01
2023-04-23T12:07:19.596Z,42.89
2023-04-23T12:09:54.147Z,43.03
2023-04-23T12:12:23.612Z,42.97
2023-04-23T12:14:51.656Z,42.94
2023-04-23T12:17:19.787Z,42.88
2023-04-23T12:19:47.850Z,43.08
2023-04-23T12:22:15.926Z,43.00
2023-04-23T12:24:48.868Z,43.01
2023-04-23T12:27:20.576Z,43.01
2023-04-23T12:29:50.937Z,43.07
2023-04-23T12:32:23.147Z,42.99
2023-04-23T12:34:55.017Z,42.95
2023-04-23T12:37:26.893Z,42.98
2023-04-23T12:39:56.843Z,42.98
2023-04-23T12:42:25.934Z,42.94
2023-04-23T12:44:56.573Z,43.01
2023-04-23T12:47:24.922Z,42.99
2023-04-23T12:49:55.714Z,43.01
2023-04-23T12:52:25.415Z,43.03
2023-04-23T12:54:56.571Z,42.85
2023-04-23T12:57:24.913Z,42.94
2023-04-23T12:59:54.974Z,42.88
2023-04-23T13:02:25.913Z,42.95
2023-04-23T13:04:59.671Z,42.98
2023-04-23T13:07:28.093Z,42.91
2023-04-23T13:09:57.322Z,43.10
2023-04-23T13:12:25.466Z,42.97
2023-04-23T13:14:53.576Z,43.10
2023-04-23T13:17:22.002Z,43.10
2023-04-23T13:19:51.461Z,42.91
2023-04-23T13:22:19.586Z,43.10
2023-04-23T13:24:47.686Z,42.99
2023-04-23T13:27:16.058Z,43.03
2023-04-23T13:29:44.421Z,43.13
2023-04-23T13:32:12.731Z,43.09
2023-04-23T13:34:40.893Z,43.04
2023-04-23T13:37:10.489Z,43.19
2023-04-23T13:39:41.476Z,43.00
2023-04-23T13:42:10.405Z,43.05
2023-04-23T13:44:38.770Z,43.14
2023-04-23T13:47:07.000Z,43.05
2023-04-23T13:49:35.411Z,43.18
2023-04-23T13:52:07.112Z,43.10
2023-04-23T13:54:36.724Z,43.16
2023-04-23T13:57:04.921Z,43.11
2023-04-23T13:59:33.060Z,43.05
2023-04-23T14:02:01.274Z,43.05
2023-04-23T14:04:29.351Z,43.04
2023-04-23T14:06:57.454Z,43.16
2023-04-23T14:09:25.635Z,43.00
2023-04-23T14:11:55.127Z,43.09
2023-04-23T14:14:23.197Z,43.09
2023-04-23T14:16:51.313Z,43.16
2023-04-23T14:19:19.368Z,43.13
2023-04-23T14:21:47.808Z,43.16
2023-04-23T14:24:19.878Z,43.10
2023-04-23T14:26:50.023Z,43.22
2023-04-23T14:29:32.653Z,43.60
2023-04-23T14:32:00.835Z,43.32
2023-04-23T14:34:28.994Z,43.12
2023-04-23T14:36:57.152Z,43.25
2023-04-23T14:39:25.902Z,43.13
2023-04-23T14:41:54.158Z,43.25
2023-04-23T14:44:23.507Z,43.11
2023-04-23T14:46:53.086Z,43.27
2023-04-23T14:49:21.856Z,43.20
2023-04-23T14:51:54.096Z,43.14
2023-04-23T14:54:22.570Z,43.29
2023-04-23T14:56:51.632Z,43.15
2023-04-23T14:59:19.893Z,43.22
2023-04-23T15:01:48.186Z,43.19
2023-04-23T15:04:18.432Z,43.22
2023-04-23T15:06:46.637Z,43.19
2023-04-23T15:09:14.830Z,43.17
2023-04-23T15:11:43.376Z,43.11
2023-04-23T15:14:21.843Z,43.60
2023-04-23T15:16:50.397Z,43.14
2023-04-23T15:19:20.080Z,43.33
2023-04-23T15:21:48.215Z,43.38
2023-04-23T15:24:16.541Z,43.23
2023-04-23T15:26:46.001Z,43.25
2023-04-23T15:29:14.584Z,43.23
2023-04-23T15:31:42.914Z,43.20
2023-04-23T15:34:12.250Z,43.27
2023-04-23T15:36:41.955Z,43.36
2023-04-23T15:39:10.332Z,43.29
2023-04-23T15:41:40.815Z,43.29
2023-04-23T15:44:12.408Z,43.32
2023-04-23T15:46:40.988Z,43.28
2023-04-23T15:49:09.312Z,43.33
2023-04-23T15:51:37.527Z,43.29
2023-04-23T15:54:08.914Z,43.37
2023-04-23T15:56:37.924Z,43.31
2023-04-23T15:59:06.862Z,43.31
2023-04-23T16:01:35.028Z,43.33
2023-04-23T16:06:34.192Z,43.24
2023-04-23T16:09:03.828Z,43.28
2023-04-23T16:11:33.362Z,43.30
2023-04-23T16:14:01.418Z,43.30
2023-04-23T16:16:30.864Z,43.33
2023-04-23T16:18:58.964Z,43.29
2023-04-23T16:21:28.287Z,43.32
2023-04-23T16:23:56.956Z,43.29
2023-04-23T16:26:25.262Z,43.34
2023-04-23T16:29:05.568Z,43.40
2023-04-23T16:31:42.853Z,43.28
2023-04-23T16:34:10.871Z,43.32
2023-04-23T16:36:39.122Z,43.37
2023-04-23T16:39:07.305Z,43.36
2023-04-23T16:41:35.325Z,43.33
2023-04-23T16:44:04.753Z,43.36
2023-04-23T16:46:32.985Z,43.26
2023-04-23T16:49:01.237Z,43.38
2023-04-23T16:51:29.817Z,43.44
2023-04-23T16:53:58.429Z,43.41
2023-04-23T16:56:26.826Z,43.56
2023-04-23T16:58:55.092Z,43.43
2023-04-23T17:01:24.601Z,43.42
2023-04-23T17:03:52.956Z,43.44
2023-04-23T17:06:27.189Z,43.52
2023-04-23T17:08:55.907Z,43.31
2023-04-23T17:11:24.653Z,43.46
2023-04-23T17:13:52.805Z,43.46
2023-04-23T17:16:20.890Z,43.33
2023-04-23T17:18:50.474Z,43.47
2023-04-23T17:21:19.128Z,43.43
2023-04-23T17:23:47.208Z,43.43
2023-04-23T17:26:16.307Z,43.52
2023-04-23T17:28:44.356Z,43.34
2023-04-23T17:31:12.444Z,43.36
2023-04-23T17:33:43.593Z,43.34
2023-04-23T17:36:13.166Z,43.36
2023-04-23T17:38:41.443Z,43.35
2023-04-23T17:41:09.781Z,43.41
2023-04-23T17:43:37.848Z,43.58
2023-04-23T17:46:05.973Z,43.51
2023-04-23T17:48:34.135Z,43.40
2023-04-23T17:51:02.292Z,43.36
2023-04-23T17:53:32.162Z,43.52
2023-04-23T17:56:02.989Z,43.46
2023-04-23T17:58:31.701Z,43.39
2023-04-23T18:00:59.976Z,43.47
2023-04-23T18:03:30.083Z,43.53
2023-04-23T18:05:58.393Z,43.57
2023-04-23T18:08:26.544Z,43.41
2023-04-23T18:10:56.345Z,43.43
2023-04-23T18:13:24.432Z,43.49
2023-04-23T18:15:52.829Z,43.51
2023-04-23T18:18:21.850Z,43.47
2023-04-23T18:20:52.183Z,43.45
2023-04-23T18:23:22.291Z,43.54
2023-04-23T18:25:50.667Z,43.52
2023-04-23T18:28:20.111Z,43.55
2023-04-23T18:30:48.293Z,43.52
2023-04-23T18:33:30.776Z,43.72
2023-04-23T18:36:04.095Z,43.44
2023-04-23T18:38:37.531Z,43.31
2023-04-23T18:41:06.030Z,43.47
2023-04-23T18:43:35.544Z,43.51
2023-04-23T18:46:04.027Z,43.41
2023-04-23T18:48:52.062Z,43.94
2023-04-23T18:51:30.061Z,43.71
2023-04-23T18:53:58.245Z,43.48
2023-04-23T18:56:26.352Z,43.49
2023-04-23T18:58:55.974Z,43.40
2023-04-23T19:01:27.862Z,43.54
2023-04-23T19:03:56.558Z,43.49
2023-04-23T19:06:24.792Z,43.47
2023-04-23T19:08:52.896Z,43.43
2023-04-23T19:11:21.427Z,43.53
2023-04-23T19:13:49.447Z,43.55
2023-04-23T19:16:18.943Z,43.54
2023-04-23T19:18:47.161Z,43.45
2023-04-23T19:21:15.191Z,43.62
2023-04-23T19:23:43.373Z,43.56
2023-04-23T19:26:11.821Z,43.48
2023-04-23T19:28:40.108Z,43.52
2023-04-23T19:31:08.189Z,43.53
2023-04-23T19:33:37.742Z,43.51
2023-04-23T19:36:06.080Z,43.48
2023-04-23T19:38:34.181Z,43.58
2023-04-23T19:41:02.308Z,43.48
2023-04-23T19:43:30.756Z,43.50
2023-04-23T19:45:58.959Z,43.54
2023-04-23T19:48:27.157Z,43.51
2023-04-23T19:50:56.692Z,43.36
2023-04-23T19:53:24.797Z,43.47
2023-04-23T19:55:52.880Z,43.63
2023-04-23T19:58:20.919Z,43.50
2023-04-23T20:00:49.077Z,43.49
2023-04-23T20:03:17.277Z,43.48
2023-04-23T20:05:46.306Z,43.48
2023-04-23T20:08:26.078Z,43.41
2023-04-23T20:10:54.469Z,43.44
2023-04-23T20:13:23.842Z,43.51
2023-04-23T20:15:53.852Z,43.32
2023-04-23T20:18:22.476Z,43.57
2023-04-23T20:20:50.651Z,43.51
2023-04-23T20:23:20.198Z,43.52
2023-04-23T20:25:48.495Z,43.49
2023-04-23T20:28:16.584Z,43.45
2023-04-23T20:30:44.634Z,43.48
2023-04-23T20:33:12.822Z,43.43
2023-04-23T20:35:41.981Z,43.48
2023-04-23T20:38:10.208Z,43.39
2023-04-23T20:40:39.938Z,43.52
2023-04-23T20:43:08.567Z,43.42
2023-04-23T20:45:36.760Z,43.43
2023-04-23T20:48:04.990Z,43.45
2023-04-23T20:50:33.265Z,43.38
2023-04-23T20:53:01.759Z,43.57
2023-04-23T20:55:29.926Z,43.49
2023-04-23T20:57:59.418Z,43.45
2023-04-23T21:00:27.999Z,43.43
2023-04-23T21:02:56.418Z,43.38
2023-04-23T21:05:24.731Z,43.55
2023-04-23T21:07:53.137Z,43.50
2023-04-23T21:10:21.791Z,43.49
2023-04-23T21:12:50.103Z,43.41
2023-04-23T21:15:19.930Z,43.47
2023-04-23T21:17:47.965Z,43.43
2023-04-23T21:20:16.153Z,43.47
2023-04-23T21:22:44.417Z,43.40
2023-04-23T21:25:12.557Z,43.52
2023-04-23T21:27:45.455Z,43.51
2023-04-23T21:30:23.392Z,43.53
2023-04-23T21:32:52.314Z,43.51
2023-04-23T21:35:20.518Z,43.41
2023-04-23T21:37:48.548Z,43.43
2023-04-23T21:40:16.628Z,43.47
2023-04-23T21:42:46.460Z,43.48
2023-04-23T21:45:14.757Z,43.51
2023-04-23T21:47:44.344Z,43.43
2023-04-23T21:50:13.517Z,43.45
2023-04-23T21:52:44.192Z,43.47
2023-04-23T21:55:13.674Z,43.51
2023-04-23T21:57:42.180Z,43.47
2023-04-23T22:00:14.054Z,43.43
2023-04-23T22:02:46.507Z,43.47
2023-04-23T22:05:17.061Z,43.38
2023-04-23T22:07:45.191Z,43.54
2023-04-23T22:10:16.080Z,43.54
2023-04-23T22:12:45.084Z,43.42
2023-04-23T22:15:15.415Z,43.44
2023-04-23T22:17:46.429Z,43.45
2023-04-23T22:20:16.073Z,43.38
2023-04-23T22:22:44.566Z,43.45
2023-04-23T22:25:13.057Z,43.49
2023-04-23T22:27:42.391Z,43.31
2023-04-23T22:30:12.208Z,43.42
2023-04-23T22:32:41.226Z,43.47
2023-04-23T22:35:11.271Z,43.45
2023-04-23T22:37:39.930Z,43.43
2023-04-23T22:40:09.634Z,43.30
2023-04-23T22:42:37.883Z,43.47
2023-04-23T22:45:07.356Z,43.48
2023-04-23T22:47:35.551Z,43.37
2023-04-23T22:50:03.668Z,43.38
2023-04-23T22:52:33.325Z,43.37
2023-04-23T22:55:01.423Z,43.44
2023-04-23T22:57:30.732Z,43.34
2023-04-23T22:59:58.850Z,43.48
2023-04-23T23:02:27.043Z,43.31
2023-04-23T23:04:55.228Z,43.36
2023-04-23T23:07:23.328Z,43.27
2023-04-23T23:09:52.825Z,43.36
2023-04-23T23:12:20.937Z,43.46
2023-04-23T23:14:48.992Z,43.49
2023-04-23T23:17:17.096Z,43.50
2023-04-23T23:19:45.378Z,43.54
2023-04-23T23:22:13.707Z,43.46
2023-04-23T23:24:41.848Z,43.46
2023-04-23T23:27:11.309Z,43.48
2023-04-23T23:29:39.974Z,43.49
2023-04-23T23:32:08.669Z,43.46
2023-04-23T23:34:36.772Z,43.33
2023-04-23T23:37:04.876Z,43.48
2023-04-23T23:39:33.036Z,43.30
2023-04-23T23:42:02.328Z,43.40
2023-04-23T23:44:31.905Z,43.36
2023-04-23T23:47:01.580Z,43.37
2023-04-23T23:49:29.846Z,43.37
2023-04-23T23:52:00.999Z,43.53
2023-04-23T23:54:29.078Z,43.43
2023-04-23T23:56:57.456Z,43.42
2023-04-23T23:59:28.903Z,43.38
